KBIJ

Early County Airport

Blakely, Georgia, USA
METAR KBIJ 231615Z AUTO 16006KT 10SM SCT025 SCT030 SCT041 26/18 A3040 RMK AO2
Observed Flight Rules
Feb-23 @ 16:15 UTC (26 minutes ago) Visual Flight Rules
Wind Visibility Clouds
160° at 6 knots 10 miles
  • Scattered at 2,500' AGL
  • Scattered at 3,000' AGL
  • Scattered at 4,100' AGL
Temperatures Readings
Current 26°C / 79°F
Dewpoint 18°C / 64°F
Humidity 61%
Altimeter 30.4" Hg
Pressure 1029 hPa
Elevation 65
METAR KBIJ 231615Z AUTO 16006KT 10SM SCT025 SCT030 SCT041 26/18 A3040 RMK AO2
Observed Flight Rules
Feb-23 @ 16:15 UTC
(26 minutes ago)
VFR
Wind Visibility
160° at 6 knots 10 miles
Clouds
  • Scattered at 2,500' AGL
  • Scattered at 3,000' AGL
  • Scattered at 4,100' AGL
Temperature Dewpoint
26°C / 79°F 18°C / 64°F
Humidity Altimeter Pressure
61% 30.4" Hg 1029 hPa